Terminal Aerodrome Forecast
Issued by NWS Charleston, WV

Current Version | Previous Version | Text Only | Print | Product List | Glossary Off
Versions: 1 2 3 4 5 6 7 8 9 10 11 12 13 14 15 16 17 18 19 20 21 22 23

000
FTUS41 KRLX 230521
TAFCRW
TAF
KCRW 230521Z 2306/2406 04005KT P6SM BKN035
      TEMPO 2306/2310 3SM BR SCT001
     FM231000 04005KT 6SM BR SCT001
     FM231400 06005KT P6SM BKN035
     FM232000 07005KT P6SM BKN030
     FM240000 09004KT 6SM SHRA OVC025=

USA.gov is the U.S. government's official web portal to all federal, state and local government web resources and services.